Pays
Station

 

Conditions  météo  pour  Madrid/Getafe  -  Espagne    Espagne

  
26 °C
    
 
 

METAR pour Madrid/Getafe :

LEGT 231743Z 24027G39KT 210V280 7000 TSRA FEW010 BKN040CB 26/16 Q1016

 

Voici le bulletin pour Madrid/Getafe - Espagne.
 
Le bulletin a été fait il y a 10 minutes, à 17:43 UTC .
Le vent soufflait à la vitesse de 13.9 mètres par seconde avec des rafales jusqu'à 20.1 mètres par seconde de Ouest/Sud-ouest (240°), variant entre Sud/Sud-ouest (210°) et Ouest (280°).
 
La température était de 26 °C, avec un point de rosée à 16 °C.
La température ressentie était de 27 °C.
 
La pression atmosphérique était de 1016 hPa.
L'humidité relative était de 54.1%.
 
Il y avait 1 à 2/8ème de nébulosité à une hauteur de 305 mètres et 5 à 7/8ème cumulonimbus de nébulosité à une hauteur de 1219 mètres.
 
La visibilité globale était de 7.0 kilomètres.
 
Actuellement orage avec moderé(e) pluie.

 
 
 

Pays :   A   B   C   D   E   F   G   H   I   J   K   L   M   N   O   P   Q   R   S   T   U   V   W   Y   Z

 

Partenaires :  Info Météo avec Met'info
Météo Marine avec MeteoMarine.net
Infos Site  |  Infos Légales  |  Crédits  |  Confidentialité
Contactez-nous  |  Ajouter aux favoris
© 2013-2019 METAR - Tous droits réservés